Roseville, California
Current Conditions -  °F | °C
As of 11:35 AM on Thursday 27 Nov 2014 (Local Time) from KLHM Reporting Station
Clear Clear  
Wind Chill: 63°   Ceiling: Unl
Heat Index: 63°   Visibility: 10mi
Dew Point: 46°   Wind: 0mph
Humidity: 55%   Direction: NA
Pressure: 30.16"   Gusts: NA
Location:  38.75°N, 121.28°W
Report Text: KLHM 271935Z AUTO 00000KT 10SM CLR 17/08 A3016 RMK AO1
Loading
Personal Weather Stations






























Interactive Weather Map New forecast layout! Learn more

10-Day Weather Forecast

Advertisements
Track Severe Weather on mobile